Time;durP1;ratioP1;P1;durP2;ratioP2;P2;SDS_P1;SDS_P2;PMS_P1;PMS_P2;Temp;Humidity;BMP_temperature;BMP_pressure;BME280_temperature;BME280_humidity;BME280_pressure;Samples;Min_cycle;Max_cycle;Signal;HPM_P1;HPM_P2
2022/05/17 00:02:05;;;;;;;4.53;1.50;;;;;;;16.48;72.09;102039.91;5040147;28;20100;-75
2022/05/17 00:04:32;;;;;;;4.32;1.45;;;;;;;16.46;72.01;102040.00;5040398;28;20033;-74
2022/05/17 00:06:58;;;;;;;6.53;1.42;;;;;;;16.47;72.13;102038.22;5041028;28;20080;-75
2022/05/17 00:09:23;;;;;;;1.75;1.20;;;;;;;16.46;71.71;102040.00;5041109;28;20084;-74
2022/05/17 00:11:49;;;;;;;3.85;1.33;;;;;;;16.48;71.31;102037.25;5040349;28;20033;-75
2022/05/17 00:14:15;;;;;;;3.42;0.95;;;;;;;16.48;70.92;102037.25;5022385;28;20029;-75
2022/05/17 00:16:42;;;;;;;2.90;1.15;;;;;;;16.48;71.13;102037.25;5024463;28;20523;-75
2022/05/17 00:19:08;;;;;;;1.90;1.40;;;;;;;16.48;71.04;102040.78;5040358;28;20314;-75
2022/05/17 00:21:36;;;;;;;3.33;1.02;;;;;;;16.48;71.20;102038.13;5039980;28;20041;-75
2022/05/17 00:24:02;;;;;;;4.57;1.50;;;;;;;16.48;70.86;102040.78;5040545;28;20029;-75
2022/05/17 00:26:27;;;;;;;2.50;1.35;;;;;;;16.44;72.06;102035.69;5039711;28;20052;-75
2022/05/17 00:28:53;;;;;;;1.98;1.08;;;;;;;16.43;71.82;102040.13;5023575;28;20025;-75
2022/05/17 00:31:18;;;;;;;4.18;1.38;;;;;;;16.44;71.97;102043.63;5040442;28;20217;-75
2022/05/17 00:33:43;;;;;;;3.17;1.17;;;;;;;16.43;72.13;102041.94;5040346;28;20033;-75
2022/05/17 00:36:09;;;;;;;6.85;1.30;;;;;;;16.42;72.67;102032.28;5039502;28;20025;-75
2022/05/17 00:38:35;;;;;;;2.55;1.30;;;;;;;16.39;72.46;102038.56;5039666;28;20026;-75
2022/05/17 00:41:00;;;;;;;3.80;1.20;;;;;;;16.40;72.95;102047.34;5041068;28;20033;-75
2022/05/17 00:46:58;;;;;;;2.40;1.20;;;;;;;16.40;72.84;102044.72;5038352;28;20040;-75
2022/05/17 00:49:32;;;;;;;1.80;1.30;;;;;;;16.38;72.65;102043.94;5039192;28;20033;-75
2022/05/17 00:52:01;;;;;;;3.00;1.10;;;;;;;16.38;72.60;102046.56;5036268;28;20267;-75
2022/05/17 00:54:28;;;;;;;2.85;1.30;;;;;;;16.37;72.89;102040.44;5038823;28;20040;-75
2022/05/17 00:57:20;;;;;;;3.22;1.40;;;;;;;16.36;72.96;102044.00;5039504;28;20095;-75
2022/05/17 00:59:46;;;;;;;3.47;1.30;;;;;;;16.35;73.19;102044.06;5002353;28;20045;-75
2022/05/17 01:04:48;;;;;;;2.42;1.10;;;;;;;16.32;73.24;102050.34;5008491;28;20629;-75
2022/05/17 01:07:19;;;;;;;4.25;1.90;;;;;;;16.31;73.58;102051.25;5025543;28;20162;-75
2022/05/17 01:09:44;;;;;;;4.63;1.40;;;;;;;16.30;73.44;102047.78;5034194;28;20029;-75
2022/05/17 01:12:10;;;;;;;3.80;1.40;;;;;;;16.30;73.45;102049.56;5038422;28;20040;-75
2022/05/17 01:17:22;;;;;;;1.70;1.00;;;;;;;16.30;72.80;102053.06;5030697;28;20049;-75
2022/05/17 01:19:47;;;;;;;1.75;1.20;;;;;;;16.33;72.39;102048.56;5040839;28;20044;-75
2022/05/17 01:22:13;;;;;;;2.30;0.88;;;;;;;16.33;72.30;102051.19;5039285;28;20095;-75
2022/05/17 01:24:39;;;;;;;2.65;1.10;;;;;;;16.33;71.94;102049.41;5034557;28;20041;-75
2022/05/17 01:27:17;;;;;;;4.22;1.33;;;;;;;16.33;71.86;102052.03;5038710;28;20033;-75
2022/05/17 01:29:44;;;;;;;1.60;1.15;;;;;;;16.34;71.51;102053.78;5034040;28;20037;-75
2022/05/17 01:32:11;;;;;;;2.42;1.10;;;;;;;16.35;71.76;102054.63;5037789;28;20092;-75
2022/05/17 01:34:37;;;;;;;2.65;1.10;;;;;;;16.35;71.72;102054.63;5038113;28;20041;-75
2022/05/17 01:37:04;;;;;;;1.95;1.10;;;;;;;16.34;71.29;102047.66;5035577;28;20133;-75
2022/05/17 01:39:31;;;;;;;3.13;1.20;;;;;;;16.36;71.57;102056.34;5030790;28;20053;-75
2022/05/17 01:41:57;;;;;;;2.15;1.15;;;;;;;16.34;71.81;102055.56;5030935;28;20245;-75
2022/05/17 01:44:23;;;;;;;2.50;1.35;;;;;;;16.33;72.09;102051.19;5037980;28;20056;-75
2022/05/17 01:46:49;;;;;;;4.45;1.48;;;;;;;16.33;72.14;102051.19;5029878;28;20045;-75
2022/05/17 01:49:14;;;;;;;2.28;1.30;;;;;;;16.31;72.49;102048.63;5030461;28;20033;-75
2022/05/17 01:51:40;;;;;;;2.53;1.20;;;;;;;16.30;72.22;102047.78;5036299;28;20045;-75
2022/05/17 01:54:05;;;;;;;4.95;1.40;;;;;;;16.29;72.19;102038.13;5036546;28;20037;-75
2022/05/17 01:56:30;;;;;;;3.95;1.40;;;;;;;16.28;72.21;102039.06;5034599;28;20221;-75
2022/05/17 01:58:56;;;;;;;3.42;1.33;;;;;;;16.27;72.33;102047.06;5030671;28;20092;-75
2022/05/17 02:01:21;;;;;;;1.92;1.10;;;;;;;16.26;72.28;102050.63;5045560;28;20060;-75
2022/05/17 02:03:47;;;;;;;1.80;1.13;;;;;;;16.25;72.37;102052.41;5029248;28;20041;-75
2022/05/17 02:06:12;;;;;;;2.13;1.23;;;;;;;16.24;72.21;102042.75;5038082;28;20084;-75
2022/05/17 02:08:38;;;;;;;4.25;1.60;;;;;;;16.24;72.58;102060.41;5009717;28;20044;-75
2022/05/17 02:11:03;;;;;;;4.78;1.55;;;;;;;16.21;72.67;102053.47;5037131;28;20033;-73
2022/05/17 02:13:29;;;;;;;2.97;1.40;;;;;;;16.20;72.74;102054.41;5042047;28;20041;-73
2022/05/17 02:15:55;;;;;;;3.47;1.17;;;;;;;16.19;73.08;102063.25;5039049;28;20083;-73
2022/05/17 02:18:21;;;;;;;4.35;1.80;;;;;;;16.17;72.98;102062.47;5046624;28;20093;-73
2022/05/17 02:20:46;;;;;;;2.65;1.50;;;;;;;16.16;72.83;102055.47;5050758;28;20033;-73
2022/05/17 02:23:11;;;;;;;3.35;1.45;;;;;;;16.14;73.01;102054.69;5050101;28;20044;-73
2022/05/17 02:25:37;;;;;;;3.05;1.13;;;;;;;16.15;72.71;102053.75;5047334;28;20025;-72
2022/05/17 02:28:03;;;;;;;5.43;1.60;;;;;;;16.14;72.87;102052.03;5047901;28;20134;-72
2022/05/17 02:30:29;;;;;;;3.08;1.50;;;;;;;16.13;72.95;102055.59;5050009;28;20048;-73
2022/05/17 02:32:54;;;;;;;3.13;1.30;;;;;;;16.12;73.15;102054.75;5041387;28;20057;-73
2022/05/17 02:35:20;;;;;;;3.58;1.70;;;;;;;16.11;73.19;102055.66;5043338;28;20037;-73
2022/05/17 02:37:45;;;;;;;3.53;1.60;;;;;;;16.11;73.60;102057.44;5050310;28;20132;-73
2022/05/17 02:40:11;;;;;;;2.15;1.48;;;;;;;16.10;73.33;102053.09;5056982;28;20033;-72
2022/05/17 02:42:37;;;;;;;4.75;1.58;;;;;;;16.10;73.61;102053.97;5045336;28;20021;-72
2022/05/17 02:45:03;;;;;;;4.18;1.83;;;;;;;16.09;73.50;102059.31;5019060;28;20037;-75
2022/05/17 02:47:29;;;;;;;2.53;1.50;;;;;;;16.09;73.23;102064.59;5037139;28;20027;-74
2022/05/17 02:49:54;;;;;;;3.28;1.75;;;;;;;16.08;73.37;102055.81;5037289;28;20037;-75
2022/05/17 02:52:19;;;;;;;1.50;1.35;;;;;;;16.07;73.48;102059.38;5034566;28;20053;-75
2022/05/17 02:54:45;;;;;;;3.72;1.60;;;;;;;16.07;73.60;102063.81;5035612;28;20217;-75
2022/05/17 02:57:11;;;;;;;4.25;1.40;;;;;;;16.05;73.65;102068.31;5036580;28;20045;-75
2022/05/17 02:59:36;;;;;;;4.07;1.50;;;;;;;16.05;72.96;102070.94;5036754;28;20067;-75
2022/05/17 03:02:02;;;;;;;1.63;1.38;;;;;;;16.04;73.08;102070.06;5036875;28;20036;-75
2022/05/17 03:04:28;;;;;;;1.98;1.05;;;;;;;16.04;72.62;102069.22;5037419;28;20033;-75
2022/05/17 03:06:54;;;;;;;1.98;1.40;;;;;;;16.03;72.53;102070.16;5039204;28;20045;-75
2022/05/17 03:09:20;;;;;;;2.67;1.30;;;;;;;16.04;73.02;102071.84;5032590;28;20036;-75
2022/05/17 03:11:45;;;;;;;2.88;1.55;;;;;;;16.03;73.13;102068.38;5036445;28;20037;-75
2022/05/17 03:14:13;;;;;;;2.28;1.38;;;;;;;16.02;73.10;102073.72;5032582;28;20038;-75
2022/05/17 03:16:40;;;;;;;4.20;1.40;;;;;;;16.00;73.15;102087.00;5032211;28;20104;-74
2022/05/17 03:19:06;;;;;;;2.60;1.20;;;;;;;16.00;73.18;102089.63;5017075;28;20036;-74
2022/05/17 03:21:32;;;;;;;1.58;1.08;;;;;;;15.99;72.98;102076.47;5036533;28;20306;-74
2022/05/17 03:23:57;;;;;;;4.43;1.55;;;;;;;15.97;72.90;102081.84;5036228;28;20092;-75
2022/05/17 03:26:23;;;;;;;5.43;1.50;;;;;;;15.98;73.01;102086.19;5037829;28;20048;-75
2022/05/17 03:28:48;;;;;;;4.75;1.50;;;;;;;15.97;73.05;102087.16;5045974;28;20395;-75
2022/05/17 03:31:14;;;;;;;2.83;1.65;;;;;;;15.98;73.44;102088.84;5039820;28;20025;-75
2022/05/17 03:33:40;;;;;;;1.98;1.25;;;;;;;15.98;73.63;102083.56;5033029;28;20383;-75
2022/05/17 03:36:09;;;;;;;2.30;1.30;;;;;;;15.98;73.36;102091.47;5022892;28;20029;-75
2022/05/17 03:38:36;;;;;;;2.80;1.63;;;;;;;15.97;73.39;102091.53;5035204;28;20049;-75
2022/05/17 03:41:02;;;;;;;2.85;1.70;;;;;;;15.97;73.48;102103.00;5040837;28;20035;-75
2022/05/17 03:43:29;;;;;;;1.40;1.08;;;;;;;15.96;73.97;102106.56;5039763;28;20044;-75
2022/05/17 03:45:55;;;;;;;3.75;1.30;;;;;;;15.95;73.41;102107.47;5022992;28;20053;-75
2022/05/17 03:48:23;;;;;;;1.90;1.60;;;;;;;15.96;73.33;102105.69;5040061;28;20079;-75
2022/05/17 03:50:49;;;;;;;6.70;1.37;;;;;;;15.95;73.22;102107.47;5037976;28;20025;-75
2022/05/17 03:53:14;;;;;;;3.10;1.50;;;;;;;15.95;73.17;102106.59;5040298;28;20041;-75
2022/05/17 03:55:41;;;;;;;1.80;1.02;;;;;;;15.95;73.27;102110.09;5039891;28;20049;-75
2022/05/17 03:58:07;;;;;;;3.05;1.48;;;;;;;15.95;72.37;102107.47;5027550;28;20040;-75
2022/05/17 04:00:33;;;;;;;5.43;1.50;;;;;;;15.95;72.11;102110.09;5039357;28;20080;-75
2022/05/17 04:02:59;;;;;;;2.70;1.45;;;;;;;15.95;72.65;102112.75;5035402;28;20320;-75
2022/05/17 04:05:24;;;;;;;2.20;1.40;;;;;;;15.94;72.03;102116.31;5039599;28;20056;-75
2022/05/17 04:07:50;;;;;;;3.08;1.45;;;;;;;15.95;72.29;102110.09;5038775;28;20032;-75
2022/05/17 04:10:16;;;;;;;4.03;1.98;;;;;;;15.94;72.67;102111.03;5032274;28;20037;-75
2022/05/17 04:12:43;;;;;;;4.15;1.85;;;;;;;15.95;72.61;102109.25;5039166;28;20049;-75
2022/05/17 04:15:12;;;;;;;2.47;1.30;;;;;;;15.95;72.45;102115.38;5039629;28;20033;-75
2022/05/17 04:17:37;;;;;;;2.50;1.50;;;;;;;15.95;71.71;102111.91;5038263;28;20265;-75
2022/05/17 04:20:04;;;;;;;2.28;1.48;;;;;;;15.96;71.69;102116.25;5039198;28;20025;-75
2022/05/17 04:22:29;;;;;;;1.92;1.40;;;;;;;15.95;72.31;102118.03;5039555;28;20033;-75
2022/05/17 04:24:58;;;;;;;2.30;1.13;;;;;;;15.95;72.26;102117.19;5034521;28;20041;-75
2022/05/17 04:27:25;;;;;;;2.67;1.40;;;;;;;15.96;71.71;102134.75;5037300;28;20029;-74
2022/05/17 04:29:51;;;;;;;1.77;1.33;;;;;;;15.96;72.03;102132.13;5030756;28;20280;-74
2022/05/17 04:32:17;;;;;;;6.32;1.92;;;;;;;15.96;72.68;102132.13;5041439;28;20272;-74
2022/05/17 04:34:42;;;;;;;2.60;1.60;;;;;;;15.92;72.87;102137.53;5038501;28;20090;-75
2022/05/17 04:37:08;;;;;;;3.78;1.42;;;;;;;15.93;72.39;102133.97;5040041;28;20256;-75
2022/05/17 04:39:34;;;;;;;4.38;1.90;;;;;;;15.94;72.02;102132.19;5041317;28;20040;-75
2022/05/17 04:41:59;;;;;;;3.78;1.52;;;;;;;15.93;73.05;102133.09;5032523;28;20306;-74
2022/05/17 04:44:25;;;;;;;4.13;1.70;;;;;;;15.93;72.97;102136.63;5036124;28;20046;-74
2022/05/17 04:46:51;;;;;;;4.82;1.80;;;;;;;15.93;73.32;102136.63;5037947;28;20037;-75
2022/05/17 04:49:17;;;;;;;4.28;2.03;;;;;;;15.92;74.34;102134.03;5028110;28;20408;-74
2022/05/17 04:51:43;;;;;;;4.47;2.15;;;;;;;15.92;74.79;102145.44;5034966;28;20380;-75
2022/05/17 04:54:09;;;;;;;5.70;2.28;;;;;;;15.92;75.18;102142.81;5036187;28;20092;-75
2022/05/17 04:56:34;;;;;;;1.70;1.60;;;;;;;15.93;75.48;102148.94;5039173;28;20108;-75
2022/05/17 04:59:01;;;;;;;4.65;2.30;;;;;;;15.91;74.40;102145.50;5031869;28;20033;-75
2022/05/17 05:01:27;;;;;;;2.38;1.73;;;;;;;15.93;74.52;102151.59;5035646;28;20041;-74
2022/05/17 05:03:52;;;;;;;7.32;2.78;;;;;;;15.92;75.59;102145.44;5037495;28;20245;-75
2022/05/17 05:06:17;;;;;;;5.15;1.90;;;;;;;15.94;75.77;102148.03;5034176;28;20071;-75
2022/05/17 05:08:43;;;;;;;6.13;2.03;;;;;;;15.92;75.67;102142.81;5043844;28;20246;-75
2022/05/17 05:11:08;;;;;;;5.13;2.15;;;;;;;15.92;75.52;102148.09;5019656;28;20065;-74
2022/05/17 05:13:33;;;;;;;3.83;1.60;;;;;;;15.93;75.79;102149.81;5033846;28;20038;-75
2022/05/17 05:15:59;;;;;;;6.55;2.10;;;;;;;15.91;76.70;102145.50;5026326;28;20342;-75
2022/05/17 05:18:24;;;;;;;4.35;2.15;;;;;;;15.90;76.42;102147.31;5024269;28;20049;-75
2022/05/17 05:20:50;;;;;;;3.40;1.85;;;;;;;15.91;76.60;102150.78;5037078;28;20040;-75
2022/05/17 05:23:15;;;;;;;3.92;1.95;;;;;;;15.90;75.84;102154.38;5033589;28;20371;-75
2022/05/17 05:25:41;;;;;;;5.28;1.60;;;;;;;15.91;75.54;102164.00;5036555;28;20079;-75
2022/05/17 05:28:09;;;;;;;6.60;2.20;;;;;;;15.91;75.06;102166.63;5031153;28;20030;-75
2022/05/17 05:30:35;;;;;;;4.37;2.00;;;;;;;15.92;74.91;102168.38;5030208;28;20071;-75
2022/05/17 05:33:00;;;;;;;4.50;1.80;;;;;;;15.92;74.96;102163.09;5025362;28;20030;-75
2022/05/17 05:35:26;;;;;;;8.48;2.03;;;;;;;15.92;75.22;102152.53;5027041;28;20049;-75
2022/05/17 05:37:54;;;;;;;4.50;2.00;;;;;;;15.93;75.50;102156.88;5036278;28;20663;-75
2022/05/17 05:40:20;;;;;;;2.50;1.50;;;;;;;15.94;74.72;102158.59;5036151;28;20340;-75
2022/05/17 05:42:48;;;;;;;4.72;1.90;;;;;;;15.93;74.78;102155.09;5034499;28;20292;-75
2022/05/17 05:45:14;;;;;;;3.88;1.70;;;;;;;15.95;75.04;102152.38;5034367;28;20305;-75
2022/05/17 05:47:40;;;;;;;4.00;1.60;;;;;;;15.97;75.05;102154.94;5035297;28;20041;-75
2022/05/17 05:50:07;;;;;;;4.80;2.00;;;;;;;15.99;75.45;102155.75;5032038;28;20028;-75
2022/05/17 05:52:33;;;;;;;5.90;1.92;;;;;;;15.98;75.74;102157.53;5038331;28;20033;-75
2022/05/17 05:55:00;;;;;;;2.60;1.60;;;;;;;15.98;75.71;102149.59;5037943;28;20041;-75
2022/05/17 05:57:26;;;;;;;6.45;1.83;;;;;;;15.99;75.78;102150.47;5036244;28;20060;-75
2022/05/17 05:59:51;;;;;;;2.47;1.33;;;;;;;16.00;75.90;102152.19;5033821;28;20044;-75
2022/05/17 06:02:16;;;;;;;5.05;1.80;;;;;;;15.99;76.22;102151.34;5034674;28;20045;-75
2022/05/17 06:04:42;;;;;;;5.82;1.85;;;;;;;16.00;76.00;102150.41;5035034;28;20053;-75
2022/05/17 06:07:08;;;;;;;4.57;1.48;;;;;;;15.99;76.19;102143.41;5015472;28;20079;-75
2022/05/17 06:09:34;;;;;;;3.47;1.23;;;;;;;16.00;76.07;102154.84;5037578;28;20041;-75
2022/05/17 06:11:59;;;;;;;4.50;1.35;;;;;;;15.99;75.80;102156.63;5035135;28;20380;-75
2022/05/17 06:14:25;;;;;;;3.78;1.48;;;;;;;15.98;75.66;102157.53;5035506;28;20041;-75
2022/05/17 06:16:51;;;;;;;3.63;1.50;;;;;;;15.98;75.60;102161.97;5031467;28;20080;-75
2022/05/17 06:19:17;;;;;;;5.18;1.85;;;;;;;15.98;75.65;102160.19;5034279;28;20048;-75
2022/05/17 06:21:42;;;;;;;5.63;1.75;;;;;;;15.97;75.17;102158.47;5026420;28;20100;-75
2022/05/17 06:24:08;;;;;;;3.90;1.40;;;;;;;15.99;75.16;102163.66;5028728;28;20072;-75
2022/05/17 06:26:34;;;;;;;3.58;1.27;;;;;;;15.98;75.19;102175.19;5030544;28;20148;-75
2022/05/17 06:28:59;;;;;;;2.75;1.33;;;;;;;15.98;75.38;102162.81;5035342;28;20056;-75
2022/05/17 06:31:25;;;;;;;4.40;1.60;;;;;;;15.97;75.38;102161.13;5023206;28;20233;-75
2022/05/17 06:33:50;;;;;;;8.48;1.63;;;;;;;15.98;75.24;102159.31;5032212;28;20041;-75
2022/05/17 06:36:16;;;;;;;3.97;1.77;;;;;;;15.96;75.03;102159.38;5028308;28;20087;-75
2022/05/17 06:38:41;;;;;;;3.58;1.55;;;;;;;15.96;75.30;102159.38;5026457;28;20045;-75
2022/05/17 06:41:07;;;;;;;8.48;1.88;;;;;;;15.96;75.17;102159.38;5033719;28;20467;-75
2022/05/17 06:43:35;;;;;;;4.03;1.98;;;;;;;15.96;75.06;102164.66;5034226;28;20060;-75
2022/05/17 06:46:02;;;;;;;4.78;1.80;;;;;;;15.97;75.05;102158.47;5034406;28;20041;-75
2022/05/17 06:48:28;;;;;;;9.10;1.63;;;;;;;15.96;74.77;102150.63;5026459;28;20105;-75
2022/05/17 06:50:54;;;;;;;6.45;2.17;;;;;;;15.96;75.04;102147.97;5015800;28;20108;-75
2022/05/17 06:53:19;;;;;;;4.43;1.52;;;;;;;15.93;75.47;102144.53;5035004;28;20041;-75
2022/05/17 06:55:45;;;;;;;5.72;1.65;;;;;;;15.95;75.54;102146.25;5034190;28;20034;-75
2022/05/17 06:58:10;;;;;;;8.38;2.35;;;;;;;15.95;75.47;102143.59;5030587;28;20044;-75
2022/05/17 07:00:36;;;;;;;8.55;1.90;;;;;;;15.95;75.66;102146.25;5032478;28;20049;-75
2022/05/17 07:03:01;;;;;;;9.13;2.10;;;;;;;15.93;76.17;102148.94;5036151;28;20272;-75
2022/05/17 07:05:28;;;;;;;8.15;1.92;;;;;;;15.89;77.21;102158.78;5031089;28;20043;-75
2022/05/17 07:07:53;;;;;;;3.70;1.63;;;;;;;15.91;76.70;102149.00;5036105;28;20041;-75
2022/05/17 07:13:09;;;;;;;5.65;1.65;;;;;;;15.97;76.64;102165.53;5038036;28;20103;-75
2022/05/17 07:15:36;;;;;;;3.63;1.83;;;;;;;15.99;76.45;102161.91;5033329;28;20030;-75
2022/05/17 07:18:02;;;;;;;3.90;1.42;;;;;;;16.01;76.28;102162.69;5032186;28;20040;-75
2022/05/17 07:20:29;;;;;;;3.78;1.63;;;;;;;16.04;76.18;102166.97;5026045;28;20068;-74
2022/05/17 07:22:54;;;;;;;3.22;1.40;;;;;;;16.04;75.70;102166.97;5038470;28;20033;-75
2022/05/17 07:25:19;;;;;;;3.97;1.40;;;;;;;16.06;75.20;102170.41;5031484;28;20095;-75
2022/05/17 07:27:45;;;;;;;3.88;1.42;;;;;;;16.08;75.12;102166.81;5033402;28;20052;-75
2022/05/17 07:30:12;;;;;;;6.10;1.52;;;;;;;16.10;75.94;102170.22;5015921;28;20018;-75
2022/05/17 07:32:37;;;;;;;6.35;1.80;;;;;;;16.11;76.28;102174.56;5032105;28;20045;-75
2022/05/17 07:35:03;;;;;;;6.00;1.70;;;;;;;16.11;76.66;102171.94;5034017;28;20034;-75
2022/05/17 07:37:28;;;;;;;8.70;2.10;;;;;;;16.11;77.20;102182.50;5031872;28;20076;-75
2022/05/17 07:39:54;;;;;;;5.10;1.70;;;;;;;16.14;76.72;102192.09;5034282;28;20039;-75
2022/05/17 07:42:19;;;;;;;2.92;1.30;;;;;;;16.16;76.90;102182.31;5033632;28;20066;-75
2022/05/17 07:44:44;;;;;;;3.65;1.40;;;;;;;16.21;76.71;102179.47;5030905;28;20353;-75
2022/05/17 07:47:10;;;;;;;3.00;1.38;;;;;;;16.24;77.22;102192.56;5008430;28;20025;-75
2022/05/17 07:49:38;;;;;;;4.97;2.00;;;;;;;16.27;77.25;102188.00;5027318;28;20041;-75
2022/05/17 07:52:05;;;;;;;6.00;1.85;;;;;;;16.30;77.69;102187.88;5031745;28;20029;-75
2022/05/17 07:54:31;;;;;;;5.65;1.67;;;;;;;16.34;78.72;102190.41;5033104;28;20037;-75
2022/05/17 07:56:56;;;;;;;4.93;1.83;;;;;;;16.37;79.68;102184.94;5028803;28;20224;-75
2022/05/17 07:59:22;;;;;;;4.97;1.77;;;;;;;16.40;79.71;102195.41;5032421;28;20071;-75
2022/05/17 08:01:47;;;;;;;4.22;1.35;;;;;;;16.44;78.99;102189.03;5033585;28;20025;-75
2022/05/17 08:04:12;;;;;;;6.70;2.10;;;;;;;16.47;78.59;102192.41;5019690;28;20214;-75
2022/05/17 08:06:39;;;;;;;5.10;2.00;;;;;;;16.54;78.64;102189.53;5030235;28;20041;-75
2022/05/17 08:09:05;;;;;;;3.72;2.05;;;;;;;16.57;79.34;102187.59;5029164;28;20033;-75
2022/05/17 08:11:30;;;;;;;4.70;2.42;;;;;;;16.60;79.21;102195.38;5024065;28;20045;-75
2022/05/17 08:13:56;;;;;;;3.67;1.88;;;;;;;16.64;78.89;102196.09;5023424;28;20041;-75
2022/05/17 08:16:22;;;;;;;8.00;2.38;;;;;;;16.68;78.81;102203.84;5021292;28;20290;-75
2022/05/17 08:18:47;;;;;;;7.13;2.13;;;;;;;16.73;78.90;102194.84;5025696;28;20044;-76
2022/05/17 08:21:13;;;;;;;4.53;2.03;;;;;;;16.76;78.79;102190.25;5031920;28;20341;-75
2022/05/17 08:23:38;;;;;;;3.92;1.90;;;;;;;16.81;78.49;102190.06;5028650;28;20049;-75
2022/05/17 08:28:47;;;;;;;5.78;2.50;;;;;;;16.90;80.00;102189.69;5022656;28;20053;-76
2022/05/17 08:31:13;;;;;;;5.35;2.17;;;;;;;16.95;79.71;102181.50;5032402;28;20041;-76
2022/05/17 08:33:38;;;;;;;4.53;2.25;;;;;;;17.02;79.58;102186.44;5039988;28;20103;-75
2022/05/17 08:36:08;;;;;;;3.40;1.98;;;;;;;17.07;79.38;102181.78;5031352;28;20165;-75
2022/05/17 08:38:38;;;;;;;8.13;2.70;;;;;;;17.14;79.87;102176.22;5018416;28;20033;-76
2022/05/17 08:41:13;;;;;;;9.15;3.45;;;;;;;17.21;80.08;102177.66;5014335;28;20057;-75
2022/05/17 08:44:19;;;;;;;6.60;2.70;;;;;;;17.25;79.31;102182.72;5015167;28;20083;-75
2022/05/17 08:47:01;;;;;;;6.75;3.17;;;;;;;17.32;79.79;102180.66;5016129;28;20076;-75
2022/05/17 08:49:36;;;;;;;4.72;2.40;;;;;;;17.35;79.50;102177.84;5017016;28;20044;-75
2022/05/17 08:52:09;;;;;;;4.68;2.95;;;;;;;17.40;79.28;102175.81;5009558;28;20045;-75
2022/05/17 08:54:41;;;;;;;7.97;2.53;;;;;;;17.44;79.19;102181.84;5017273;28;20030;-75
2022/05/17 08:57:22;;;;;;;10.63;2.70;;;;;;;17.48;79.54;102186.03;5012081;28;20026;-75
2022/05/17 08:59:48;;;;;;;10.55;2.72;;;;;;;17.53;78.98;102191.13;4992203;28;20357;-75
2022/05/17 09:02:23;;;;;;;7.15;2.17;;;;;;;17.58;79.15;102178.53;5006917;28;20049;-76
2022/05/17 09:04:54;;;;;;;6.47;2.30;;;;;;;17.62;78.17;102180.09;5014314;28;20371;-75
2022/05/17 09:07:39;;;;;;;5.03;2.55;;;;;;;17.61;78.06;102173.94;5016007;28;20060;-75
2022/05/17 09:10:15;;;;;;;5.95;2.75;;;;;;;17.64;77.76;102170.25;5024296;28;20037;-75
2022/05/17 09:12:54;;;;;;;7.03;2.80;;;;;;;17.70;77.84;102169.97;5006505;28;20038;-75
2022/05/17 09:15:20;;;;;;;3.17;2.05;;;;;;;17.73;77.55;102175.09;5016924;28;20104;-75
2022/05/17 09:17:47;;;;;;;7.45;2.33;;;;;;;17.74;76.86;102171.53;5012287;28;20174;-76
2022/05/17 09:20:16;;;;;;;6.40;2.53;;;;;;;17.77;76.89;102168.75;5012510;28;20404;-76
2022/05/17 09:22:42;;;;;;;4.45;2.10;;;;;;;17.88;76.62;102162.06;5013768;28;20226;-75
2022/05/17 09:25:22;;;;;;;4.30;2.30;;;;;;;17.92;76.96;102168.91;5010815;28;20046;-75
2022/05/17 09:27:52;;;;;;;7.68;2.85;;;;;;;17.95;76.64;102166.13;5015627;28;20034;-75
2022/05/17 09:30:23;;;;;;;7.55;2.88;;;;;;;18.00;77.08;102162.28;5012387;28;20532;-76
2022/05/17 09:33:00;;;;;;;8.65;2.58;;;;;;;18.09;76.63;102160.13;5015704;28;20041;-75
2022/05/17 09:35:25;;;;;;;5.07;2.35;;;;;;;18.20;75.89;102163.91;5010321;28;20198;-76
2022/05/17 09:37:53;;;;;;;4.43;2.30;;;;;;;18.27;74.62;102156.50;5016903;28;20048;-76
2022/05/17 09:40:29;;;;;;;10.05;2.67;;;;;;;18.34;74.70;102163.22;5015821;28;20454;-76
2022/05/17 09:42:58;;;;;;;4.35;2.40;;;;;;;18.41;74.46;102161.94;5017165;28;20021;-75
2022/05/17 09:46:00;;;;;;;6.70;2.60;;;;;;;18.51;74.39;102166.75;4997258;28;20045;-76
2022/05/17 09:48:31;;;;;;;7.68;2.42;;;;;;;18.60;74.49;102158.31;5014001;28;20100;-76
2022/05/17 09:53:46;;;;;;;4.90;2.65;;;;;;;18.64;73.22;102156.34;5012669;28;20105;-76
2022/05/17 09:56:13;;;;;;;6.10;2.17;;;;;;;18.66;73.39;102157.97;5016754;28;20026;-76
2022/05/17 09:58:42;;;;;;;9.90;2.97;;;;;;;18.72;73.40;102156.78;5015181;28;20352;-76
2022/05/17 10:01:19;;;;;;;;;;;;;;;18.72;72.47;102152.34;5013439;28;20333;-76
2022/05/17 10:04:07;;;;;;;2.63;1.98;;;;;;;18.75;72.67;102149.50;5012788;28;19924;-75
2022/05/17 10:06:38;;;;;;;5.88;2.38;;;;;;;18.78;71.81;102145.84;5006048;28;20038;-76
2022/05/17 10:09:05;;;;;;;3.22;2.20;;;;;;;18.81;71.91;102143.06;5013810;28;20028;-75
2022/05/17 10:11:52;;;;;;;5.18;2.65;;;;;;;18.86;73.10;102148.97;5021466;28;20144;-75
2022/05/17 10:14:36;;;;;;;5.65;2.65;;;;;;;18.95;71.60;102143.13;5015810;28;20061;-76
2022/05/17 10:17:37;;;;;;;10.73;3.05;;;;;;;18.98;71.56;102136.81;5008594;28;20046;-76
2022/05/17 10:20:14;;;;;;;4.95;2.70;;;;;;;19.13;71.68;102140.41;5011983;28;20116;-76
2022/05/17 10:22:45;;;;;;;5.72;2.70;;;;;;;19.17;71.14;102129.53;5021953;28;20045;-76
2022/05/17 10:25:33;;;;;;;8.80;3.20;;;;;;;19.23;71.34;102125.69;5012375;28;20378;-76
2022/05/17 10:28:11;;;;;;;;;;;;;;;19.27;71.52;102123.72;5015329;28;20049;-75
2022/05/17 10:31:11;;;;;;;4.43;3.00;;;;;;;19.31;70.84;102126.09;5013525;28;19917;-75
2022/05/17 10:33:49;;;;;;;6.10;3.60;;;;;;;19.38;69.86;102122.13;5011985;28;20223;-76
2022/05/17 10:36:20;;;;;;;5.73;3.33;;;;;;;19.33;69.93;102124.19;5014717;28;20317;-76
2022/05/17 10:39:14;;;;;;;10.70;3.63;;;;;;;19.32;70.57;102124.31;5012361;28;20299;-76
2022/05/17 10:41:40;;;;;;;8.35;3.10;;;;;;;19.34;69.96;102117.09;5022737;28;20037;-76
2022/05/17 10:44:05;;;;;;;7.85;3.80;;;;;;;19.35;69.85;102119.66;5016777;28;20046;-76
2022/05/17 10:46:37;;;;;;;6.72;3.70;;;;;;;19.45;69.99;102116.50;5010814;28;20066;-75
2022/05/17 10:49:43;;;;;;;7.57;3.60;;;;;;;19.46;70.69;102108.41;5017934;28;20048;-76
2022/05/17 10:52:21;;;;;;;7.10;4.43;;;;;;;19.53;70.16;102108.91;4988713;28;20353;-76
2022/05/17 10:54:49;;;;;;;6.30;4.40;;;;;;;19.59;69.89;102107.69;5016829;28;20089;-75
2022/05/17 10:57:18;;;;;;;7.82;4.90;;;;;;;19.62;69.30;102105.72;4990842;28;20293;-76
2022/05/17 10:59:57;;;;;;;7.82;5.30;;;;;;;19.60;69.21;102102.28;5015674;28;20034;-76
2022/05/17 11:02:23;;;;;;;9.52;4.93;;;;;;;19.60;69.49;102101.44;5012190;28;20253;-76
2022/05/17 11:05:34;;;;;;;7.70;4.90;;;;;;;19.60;70.05;102101.44;5025728;28;20056;-76
2022/05/17 11:08:02;;;;;;;7.25;4.70;;;;;;;19.61;70.18;102108.44;4949842;28;20511;-75
2022/05/17 11:10:45;;;;;;;7.15;5.10;;;;;;;19.66;69.89;102107.22;5022418;28;20034;-75
2022/05/17 11:13:19;;;;;;;5.93;5.30;;;;;;;19.71;69.88;102099.84;5012327;28;20153;-76
2022/05/17 11:15:53;;;;;;;6.53;5.07;;;;;;;19.77;69.22;102090.69;5018837;28;20029;-76
2022/05/17 11:18:33;;;;;;;12.93;5.43;;;;;;;19.79;69.21;102083.47;5006987;28;20053;-76
2022/05/17 11:21:15;;;;;;;13.93;6.18;;;;;;;19.82;69.32;102071.81;5018822;28;20234;-75
2022/05/17 11:23:56;;;;;;;9.82;6.28;;;;;;;19.94;68.94;102065.75;5006158;28;20101;-76
2022/05/17 11:26:33;;;;;;;7.90;5.93;;;;;;;20.00;68.60;102072.50;4994628;28;20042;-76
2022/05/17 11:29:11;;;;;;;9.60;5.95;;;;;;;19.95;68.03;102062.13;5016901;28;20025;-76
2022/05/17 11:31:58;;;;;;;10.70;5.80;;;;;;;20.03;68.03;102054.56;5007910;28;20080;-76
2022/05/17 11:34:31;;;;;;;8.93;5.40;;;;;;;20.08;68.02;102057.81;5009355;28;20026;-76
2022/05/17 11:37:00;;;;;;;7.72;5.00;;;;;;;20.30;66.49;102049.34;5017081;28;20108;-76
2022/05/17 11:39:32;;;;;;;7.88;5.10;;;;;;;20.40;65.83;102054.91;5033645;28;20018;-76
2022/05/17 11:42:31;;;;;;;9.57;5.28;;;;;;;20.44;66.11;102050.25;5031002;28;20352;-76
2022/05/17 11:45:17;;;;;;;7.47;5.20;;;;;;;20.59;66.05;102059.06;5032583;28;20352;-76
2022/05/17 11:47:42;;;;;;;8.85;4.32;;;;;;;20.65;65.77;102054.25;5004510;28;20218;-75
2022/05/17 11:50:21;;;;;;;10.80;5.70;;;;;;;20.78;64.71;102053.47;5025303;28;20025;-76